sensor_id;sensor_type;location;lat;lon;timestamp;temperature;humidity
41533;DHT22;27262;-35.248;149.138;2022-09-09T00:00:55;20.60;63.20
41533;DHT22;27262;-35.248;149.138;2022-09-09T00:06:42;20.60;62.90
41533;DHT22;27262;-35.248;149.138;2022-09-09T00:09:17;20.60;63.00
41533;DHT22;27262;-35.248;149.138;2022-09-09T00:12:02;20.60;62.90
41533;DHT22;27262;-35.248;149.138;2022-09-09T00:17:43;20.70;63.00
41533;DHT22;27262;-35.248;149.138;2022-09-09T00:20:28;20.70;62.80
41533;DHT22;27262;-35.248;149.138;2022-09-09T00:26:21;20.70;63.00
41533;DHT22;27262;-35.248;149.138;2022-09-09T00:31:44;20.70;63.80
41533;DHT22;27262;-35.248;149.138;2022-09-09T00:34:20;20.70;63.70
41533;DHT22;27262;-35.248;149.138;2022-09-09T00:36:52;20.70;63.00
41533;DHT22;27262;-35.248;149.138;2022-09-09T00:39:44;20.70;62.90
41533;DHT22;27262;-35.248;149.138;2022-09-09T00:42:26;20.80;62.90
41533;DHT22;27262;-35.248;149.138;2022-09-09T00:47:52;20.80;63.10
41533;DHT22;27262;-35.248;149.138;2022-09-09T00:50:45;20.90;63.20
41533;DHT22;27262;-35.248;149.138;2022-09-09T00:56:51;20.80;63.40
41533;DHT22;27262;-35.248;149.138;2022-09-09T01:04:54;20.90;63.80
41533;DHT22;27262;-35.248;149.138;2022-09-09T01:07:26;20.90;63.90
41533;DHT22;27262;-35.248;149.138;2022-09-09T01:10:03;20.90;63.80
41533;DHT22;27262;-35.248;149.138;2022-09-09T01:12:44;20.90;64.10
41533;DHT22;27262;-35.248;149.138;2022-09-09T01:15:28;20.90;63.90
41533;DHT22;27262;-35.248;149.138;2022-09-09T01:21:39;20.90;64.10
41533;DHT22;27262;-35.248;149.138;2022-09-09T01:26:52;20.90;64.20
41533;DHT22;27262;-35.248;149.138;2022-09-09T01:29:25;20.90;64.70
41533;DHT22;27262;-35.248;149.138;2022-09-09T01:34:39;20.90;64.70
41533;DHT22;27262;-35.248;149.138;2022-09-09T01:37:11;20.90;64.70
41533;DHT22;27262;-35.248;149.138;2022-09-09T01:39:44;20.90;64.80
41533;DHT22;27262;-35.248;149.138;2022-09-09T01:42:23;20.90;65.00
41533;DHT22;27262;-35.248;149.138;2022-09-09T01:44:54;20.90;64.70
41533;DHT22;27262;-35.248;149.138;2022-09-09T01:47:25;20.90;64.70
41533;DHT22;27262;-35.248;149.138;2022-09-09T01:54:04;21.00;64.70
41533;DHT22;27262;-35.248;149.138;2022-09-09T02:00:08;20.90;64.60
41533;DHT22;27262;-35.248;149.138;2022-09-09T02:03:13;20.90;64.70
41533;DHT22;27262;-35.248;149.138;2022-09-09T02:09:00;20.90;64.70
41533;DHT22;27262;-35.248;149.138;2022-09-09T02:11:33;20.90;64.70
41533;DHT22;27262;-35.248;149.138;2022-09-09T02:17:11;21.00;64.60
41533;DHT22;27262;-35.248;149.138;2022-09-09T02:19:48;20.90;64.50
41533;DHT22;27262;-35.248;149.138;2022-09-09T02:22:23;20.90;64.40
41533;DHT22;27262;-35.248;149.138;2022-09-09T02:24:56;20.90;64.40
41533;DHT22;27262;-35.248;149.138;2022-09-09T02:27:28;20.90;64.30
41533;DHT22;27262;-35.248;149.138;2022-09-09T02:30:00;20.90;64.20
41533;DHT22;27262;-35.248;149.138;2022-09-09T02:32:34;21.00;64.20
41533;DHT22;27262;-35.248;149.138;2022-09-09T02:35:18;20.90;64.00
41533;DHT22;27262;-35.248;149.138;2022-09-09T02:37:53;21.00;64.00
41533;DHT22;27262;-35.248;149.138;2022-09-09T02:40:24;20.90;63.90
41533;DHT22;27262;-35.248;149.138;2022-09-09T02:42:55;20.90;63.90
41533;DHT22;27262;-35.248;149.138;2022-09-09T02:45:27;20.90;63.90
41533;DHT22;27262;-35.248;149.138;2022-09-09T02:48:23;20.90;63.80
41533;DHT22;27262;-35.248;149.138;2022-09-09T02:51:11;21.00;63.90
41533;DHT22;27262;-35.248;149.138;2022-09-09T02:54:22;21.00;64.00
41533;DHT22;27262;-35.248;149.138;2022-09-09T02:56:55;21.00;64.00
41533;DHT22;27262;-35.248;149.138;2022-09-09T02:59:25;20.90;64.00
41533;DHT22;27262;-35.248;149.138;2022-09-09T03:01:56;20.90;64.10
41533;DHT22;27262;-35.248;149.138;2022-09-09T03:04:26;21.00;64.20
41533;DHT22;27262;-35.248;149.138;2022-09-09T03:06:57;21.00;64.10
41533;DHT22;27262;-35.248;149.138;2022-09-09T03:09:28;21.00;64.20
41533;DHT22;27262;-35.248;149.138;2022-09-09T03:11:58;21.00;64.20
41533;DHT22;27262;-35.248;149.138;2022-09-09T03:14:29;21.00;64.20
41533;DHT22;27262;-35.248;149.138;2022-09-09T03:17:00;21.00;64.20
41533;DHT22;27262;-35.248;149.138;2022-09-09T03:19:32;21.00;64.10
41533;DHT22;27262;-35.248;149.138;2022-09-09T03:22:03;21.00;64.00
41533;DHT22;27262;-35.248;149.138;2022-09-09T03:24:33;21.00;63.90
41533;DHT22;27262;-35.248;149.138;2022-09-09T03:27:04;21.00;63.90
41533;DHT22;27262;-35.248;149.138;2022-09-09T03:29:34;21.00;63.80
41533;DHT22;27262;-35.248;149.138;2022-09-09T03:32:04;21.00;63.60
41533;DHT22;27262;-35.248;149.138;2022-09-09T03:34:35;21.00;63.50
41533;DHT22;27262;-35.248;149.138;2022-09-09T03:37:09;21.00;63.50
41533;DHT22;27262;-35.248;149.138;2022-09-09T03:39:39;21.00;63.40
41533;DHT22;27262;-35.248;149.138;2022-09-09T03:42:13;21.00;63.30
41533;DHT22;27262;-35.248;149.138;2022-09-09T03:44:44;21.00;63.30
41533;DHT22;27262;-35.248;149.138;2022-09-09T03:47:20;21.00;63.40
41533;DHT22;27262;-35.248;149.138;2022-09-09T03:49:53;21.00;63.50
41533;DHT22;27262;-35.248;149.138;2022-09-09T03:52:23;21.00;63.60
41533;DHT22;27262;-35.248;149.138;2022-09-09T03:54:55;21.00;63.70
41533;DHT22;27262;-35.248;149.138;2022-09-09T03:57:26;21.10;63.80
41533;DHT22;27262;-35.248;149.138;2022-09-09T03:59:56;21.00;63.80
41533;DHT22;27262;-35.248;149.138;2022-09-09T04:02:27;21.10;63.90
41533;DHT22;27262;-35.248;149.138;2022-09-09T04:04:57;21.10;64.00
41533;DHT22;27262;-35.248;149.138;2022-09-09T04:07:29;21.10;63.90
41533;DHT22;27262;-35.248;149.138;2022-09-09T04:09:59;21.10;63.80
41533;DHT22;27262;-35.248;149.138;2022-09-09T04:12:29;21.10;63.80
41533;DHT22;27262;-35.248;149.138;2022-09-09T04:14:59;21.10;63.80
41533;DHT22;27262;-35.248;149.138;2022-09-09T04:17:31;21.10;63.70
41533;DHT22;27262;-35.248;149.138;2022-09-09T04:20:03;21.10;63.60
41533;DHT22;27262;-35.248;149.138;2022-09-09T04:22:33;21.10;63.60
41533;DHT22;27262;-35.248;149.138;2022-09-09T04:25:04;21.10;63.50
41533;DHT22;27262;-35.248;149.138;2022-09-09T04:27:35;21.10;63.30
41533;DHT22;27262;-35.248;149.138;2022-09-09T04:30:05;21.10;63.30
41533;DHT22;27262;-35.248;149.138;2022-09-09T04:32:36;21.10;63.30
41533;DHT22;27262;-35.248;149.138;2022-09-09T04:35:06;21.10;63.20
41533;DHT22;27262;-35.248;149.138;2022-09-09T04:37:36;21.10;63.20
41533;DHT22;27262;-35.248;149.138;2022-09-09T04:40:07;21.10;63.10
41533;DHT22;27262;-35.248;149.138;2022-09-09T04:42:41;21.10;63.10
41533;DHT22;27262;-35.248;149.138;2022-09-09T04:45:13;21.10;63.10
41533;DHT22;27262;-35.248;149.138;2022-09-09T04:47:43;21.10;63.10
41533;DHT22;27262;-35.248;149.138;2022-09-09T04:50:13;21.20;63.10
41533;DHT22;27262;-35.248;149.138;2022-09-09T04:52:44;21.10;63.10
41533;DHT22;27262;-35.248;149.138;2022-09-09T04:55:14;21.20;63.10
41533;DHT22;27262;-35.248;149.138;2022-09-09T04:57:44;21.20;63.10
41533;DHT22;27262;-35.248;149.138;2022-09-09T05:00:15;21.20;63.10
41533;DHT22;27262;-35.248;149.138;2022-09-09T05:02:46;21.20;63.10
41533;DHT22;27262;-35.248;149.138;2022-09-09T05:05:17;21.10;62.90
41533;DHT22;27262;-35.248;149.138;2022-09-09T05:07:47;21.20;62.90
41533;DHT22;27262;-35.248;149.138;2022-09-09T05:10:18;21.20;62.90
41533;DHT22;27262;-35.248;149.138;2022-09-09T05:12:54;21.20;62.80
41533;DHT22;27262;-35.248;149.138;2022-09-09T05:15:25;21.20;62.80
41533;DHT22;27262;-35.248;149.138;2022-09-09T05:18:02;21.20;62.80
41533;DHT22;27262;-35.248;149.138;2022-09-09T05:20:32;21.20;62.80
41533;DHT22;27262;-35.248;149.138;2022-09-09T05:23:03;21.20;62.70
41533;DHT22;27262;-35.248;149.138;2022-09-09T05:25:33;21.20;62.80
41533;DHT22;27262;-35.248;149.138;2022-09-09T05:28:04;21.20;62.80
41533;DHT22;27262;-35.248;149.138;2022-09-09T05:30:36;21.20;62.80
41533;DHT22;27262;-35.248;149.138;2022-09-09T05:33:07;21.20;62.70
41533;DHT22;27262;-35.248;149.138;2022-09-09T05:35:38;21.20;62.60
41533;DHT22;27262;-35.248;149.138;2022-09-09T05:38:08;21.20;62.60
41533;DHT22;27262;-35.248;149.138;2022-09-09T05:40:39;21.20;62.70
41533;DHT22;27262;-35.248;149.138;2022-09-09T05:43:11;21.20;62.70
41533;DHT22;27262;-35.248;149.138;2022-09-09T05:45:41;21.20;62.70
41533;DHT22;27262;-35.248;149.138;2022-09-09T05:48:12;21.20;62.60
41533;DHT22;27262;-35.248;149.138;2022-09-09T05:50:42;21.20;62.60
41533;DHT22;27262;-35.248;149.138;2022-09-09T05:53:14;21.20;62.40
41533;DHT22;27262;-35.248;149.138;2022-09-09T05:55:44;21.20;62.30
41533;DHT22;27262;-35.248;149.138;2022-09-09T05:58:14;21.30;62.50
41533;DHT22;27262;-35.248;149.138;2022-09-09T06:00:46;21.30;62.50
41533;DHT22;27262;-35.248;149.138;2022-09-09T06:03:16;21.20;62.50
41533;DHT22;27262;-35.248;149.138;2022-09-09T06:05:46;21.20;62.50
41533;DHT22;27262;-35.248;149.138;2022-09-09T06:08:16;21.20;62.40
41533;DHT22;27262;-35.248;149.138;2022-09-09T06:11:02;21.20;62.40
41533;DHT22;27262;-35.248;149.138;2022-09-09T06:13:33;21.20;62.40
41533;DHT22;27262;-35.248;149.138;2022-09-09T06:16:04;21.20;62.80
41533;DHT22;27262;-35.248;149.138;2022-09-09T06:18:39;21.20;62.50
41533;DHT22;27262;-35.248;149.138;2022-09-09T06:21:16;21.20;62.40
41533;DHT22;27262;-35.248;149.138;2022-09-09T06:23:47;21.20;62.30
41533;DHT22;27262;-35.248;149.138;2022-09-09T06:26:19;21.20;62.40
41533;DHT22;27262;-35.248;149.138;2022-09-09T06:28:51;21.30;62.50
41533;DHT22;27262;-35.248;149.138;2022-09-09T06:31:23;21.20;62.40
41533;DHT22;27262;-35.248;149.138;2022-09-09T06:33:58;21.20;62.40
41533;DHT22;27262;-35.248;149.138;2022-09-09T06:36:33;21.20;62.40
41533;DHT22;27262;-35.248;149.138;2022-09-09T06:39:05;21.20;62.40
41533;DHT22;27262;-35.248;149.138;2022-09-09T06:41:41;21.20;62.40
41533;DHT22;27262;-35.248;149.138;2022-09-09T06:44:11;21.20;62.30
41533;DHT22;27262;-35.248;149.138;2022-09-09T06:46:42;21.10;62.70
41533;DHT22;27262;-35.248;149.138;2022-09-09T06:49:12;21.10;62.20
41533;DHT22;27262;-35.248;149.138;2022-09-09T06:51:43;21.10;62.20
41533;DHT22;27262;-35.248;149.138;2022-09-09T06:54:13;21.10;62.30
41533;DHT22;27262;-35.248;149.138;2022-09-09T06:56:43;21.10;62.30
41533;DHT22;27262;-35.248;149.138;2022-09-09T06:59:14;21.10;62.20
41533;DHT22;27262;-35.248;149.138;2022-09-09T07:01:44;21.10;62.10
41533;DHT22;27262;-35.248;149.138;2022-09-09T07:04:22;21.10;62.20
41533;DHT22;27262;-35.248;149.138;2022-09-09T07:06:52;21.10;62.30
41533;DHT22;27262;-35.248;149.138;2022-09-09T07:09:22;21.10;62.20
41533;DHT22;27262;-35.248;149.138;2022-09-09T07:11:53;21.10;62.20
41533;DHT22;27262;-35.248;149.138;2022-09-09T07:14:23;21.10;63.00
41533;DHT22;27262;-35.248;149.138;2022-09-09T07:16:53;21.10;62.20
41533;DHT22;27262;-35.248;149.138;2022-09-09T07:19:26;21.10;62.30
41533;DHT22;27262;-35.248;149.138;2022-09-09T07:21:57;21.10;62.30
41533;DHT22;27262;-35.248;149.138;2022-09-09T07:24:27;21.10;62.20
41533;DHT22;27262;-35.248;149.138;2022-09-09T07:26:59;21.10;62.30
41533;DHT22;27262;-35.248;149.138;2022-09-09T07:29:29;21.10;62.30
41533;DHT22;27262;-35.248;149.138;2022-09-09T07:32:00;21.10;62.40
41533;DHT22;27262;-35.248;149.138;2022-09-09T07:34:31;21.10;62.40
41533;DHT22;27262;-35.248;149.138;2022-09-09T07:37:02;21.10;62.30
41533;DHT22;27262;-35.248;149.138;2022-09-09T07:39:32;21.10;62.40
41533;DHT22;27262;-35.248;149.138;2022-09-09T07:42:02;21.10;62.30
41533;DHT22;27262;-35.248;149.138;2022-09-09T07:44:33;21.00;62.20
41533;DHT22;27262;-35.248;149.138;2022-09-09T07:47:05;21.00;62.30
41533;DHT22;27262;-35.248;149.138;2022-09-09T07:49:35;21.00;62.20
41533;DHT22;27262;-35.248;149.138;2022-09-09T07:52:06;21.00;62.20
41533;DHT22;27262;-35.248;149.138;2022-09-09T07:54:36;21.00;62.20
41533;DHT22;27262;-35.248;149.138;2022-09-09T07:57:06;21.00;62.20
41533;DHT22;27262;-35.248;149.138;2022-09-09T07:59:37;21.00;62.20
41533;DHT22;27262;-35.248;149.138;2022-09-09T08:02:09;21.00;62.20
41533;DHT22;27262;-35.248;149.138;2022-09-09T08:04:40;21.00;62.20
41533;DHT22;27262;-35.248;149.138;2022-09-09T08:07:10;21.00;62.20
41533;DHT22;27262;-35.248;149.138;2022-09-09T08:09:40;21.00;62.20
41533;DHT22;27262;-35.248;149.138;2022-09-09T08:12:11;21.00;62.30
41533;DHT22;27262;-35.248;149.138;2022-09-09T08:14:42;21.00;62.40
41533;DHT22;27262;-35.248;149.138;2022-09-09T08:17:12;21.00;62.50
41533;DHT22;27262;-35.248;149.138;2022-09-09T08:19:42;21.00;62.70
41533;DHT22;27262;-35.248;149.138;2022-09-09T08:22:14;20.90;62.80
41533;DHT22;27262;-35.248;149.138;2022-09-09T08:24:44;21.00;62.80
41533;DHT22;27262;-35.248;149.138;2022-09-09T08:27:15;21.00;63.10
41533;DHT22;27262;-35.248;149.138;2022-09-09T08:29:45;20.90;63.00
41533;DHT22;27262;-35.248;149.138;2022-09-09T08:32:15;20.90;63.10
41533;DHT22;27262;-35.248;149.138;2022-09-09T08:34:46;20.90;63.10
41533;DHT22;27262;-35.248;149.138;2022-09-09T08:37:21;20.90;63.10
41533;DHT22;27262;-35.248;149.138;2022-09-09T08:39:51;20.90;63.10
41533;DHT22;27262;-35.248;149.138;2022-09-09T08:42:28;20.90;63.10
41533;DHT22;27262;-35.248;149.138;2022-09-09T08:45:25;20.90;63.10
41533;DHT22;27262;-35.248;149.138;2022-09-09T08:51:03;20.90;63.00
41533;DHT22;27262;-35.248;149.138;2022-09-09T08:53:45;20.80;63.10
41533;DHT22;27262;-35.248;149.138;2022-09-09T08:56:22;20.80;63.10
41533;DHT22;27262;-35.248;149.138;2022-09-09T08:58:54;20.80;63.10
41533;DHT22;27262;-35.248;149.138;2022-09-09T09:10:36;20.80;63.10
41533;DHT22;27262;-35.248;149.138;2022-09-09T09:13:14;20.80;63.10
41533;DHT22;27262;-35.248;149.138;2022-09-09T09:15:52;20.70;63.10
41533;DHT22;27262;-35.248;149.138;2022-09-09T09:18:24;20.70;63.10
41533;DHT22;27262;-35.248;149.138;2022-09-09T09:21:05;20.70;63.00
41533;DHT22;27262;-35.248;149.138;2022-09-09T09:26:46;20.70;63.10
41533;DHT22;27262;-35.248;149.138;2022-09-09T09:29:19;20.70;63.10
41533;DHT22;27262;-35.248;149.138;2022-09-09T09:31:56;20.70;63.10
41533;DHT22;27262;-35.248;149.138;2022-09-09T09:34:28;20.70;63.10
41533;DHT22;27262;-35.248;149.138;2022-09-09T09:36:59;20.70;63.10
41533;DHT22;27262;-35.248;149.138;2022-09-09T09:39:34;20.70;63.00
41533;DHT22;27262;-35.248;149.138;2022-09-09T09:42:26;20.70;63.10
41533;DHT22;27262;-35.248;149.138;2022-09-09T09:44:56;20.60;63.00
41533;DHT22;27262;-35.248;149.138;2022-09-09T09:47:36;20.70;63.00
41533;DHT22;27262;-35.248;149.138;2022-09-09T09:50:17;20.60;63.00
41533;DHT22;27262;-35.248;149.138;2022-09-09T09:52:57;20.70;62.90
41533;DHT22;27262;-35.248;149.138;2022-09-09T09:55:30;20.70;63.70
41533;DHT22;27262;-35.248;149.138;2022-09-09T09:58:05;20.60;63.00
41533;DHT22;27262;-35.248;149.138;2022-09-09T10:00:36;20.70;63.00
41533;DHT22;27262;-35.248;149.138;2022-09-09T10:03:25;20.60;63.00
41533;DHT22;27262;-35.248;149.138;2022-09-09T10:05:56;20.70;62.90
41533;DHT22;27262;-35.248;149.138;2022-09-09T10:08:34;20.70;63.00
41533;DHT22;27262;-35.248;149.138;2022-09-09T10:11:35;20.70;63.10
41533;DHT22;27262;-35.248;149.138;2022-09-09T10:14:21;20.60;63.40
41533;DHT22;27262;-35.248;149.138;2022-09-09T10:17:21;20.60;63.40
41533;DHT22;27262;-35.248;149.138;2022-09-09T10:20:15;20.60;63.30
41533;DHT22;27262;-35.248;149.138;2022-09-09T10:22:52;20.60;63.40
41533;DHT22;27262;-35.248;149.138;2022-09-09T10:28:38;20.60;63.50
41533;DHT22;27262;-35.248;149.138;2022-09-09T10:34:25;20.60;63.50
41533;DHT22;27262;-35.248;149.138;2022-09-09T10:37:01;20.50;63.50
41533;DHT22;27262;-35.248;149.138;2022-09-09T10:39:39;20.60;63.60
41533;DHT22;27262;-35.248;149.138;2022-09-09T10:42:12;20.60;63.50
41533;DHT22;27262;-35.248;149.138;2022-09-09T10:48:08;20.60;63.40
41533;DHT22;27262;-35.248;149.138;2022-09-09T10:56:18;20.50;63.50
41533;DHT22;27262;-35.248;149.138;2022-09-09T11:01:27;20.50;63.60
41533;DHT22;27262;-35.248;149.138;2022-09-09T11:04:05;20.50;63.50
41533;DHT22;27262;-35.248;149.138;2022-09-09T11:06:42;20.50;63.60
41533;DHT22;27262;-35.248;149.138;2022-09-09T11:09:22;20.50;63.50
41533;DHT22;27262;-35.248;149.138;2022-09-09T11:11:57;20.50;63.50
41533;DHT22;27262;-35.248;149.138;2022-09-09T11:17:30;20.50;63.50
41533;DHT22;27262;-35.248;149.138;2022-09-09T11:20:06;20.50;63.50
41533;DHT22;27262;-35.248;149.138;2022-09-09T11:22:54;20.50;63.80
41533;DHT22;27262;-35.248;149.138;2022-09-09T11:25:39;20.50;63.60
41533;DHT22;27262;-35.248;149.138;2022-09-09T11:28:33;20.50;63.60
41533;DHT22;27262;-35.248;149.138;2022-09-09T11:44:44;20.50;63.80
41533;DHT22;27262;-35.248;149.138;2022-09-09T11:47:32;20.40;63.60
41533;DHT22;27262;-35.248;149.138;2022-09-09T11:50:33;20.50;63.80
41533;DHT22;27262;-35.248;149.138;2022-09-09T11:55:43;20.50;63.80
41533;DHT22;27262;-35.248;149.138;2022-09-09T12:00:46;20.50;63.90
41533;DHT22;27262;-35.248;149.138;2022-09-09T12:03:43;20.50;63.80
41533;DHT22;27262;-35.248;149.138;2022-09-09T12:09:12;20.50;63.70
41533;DHT22;27262;-35.248;149.138;2022-09-09T12:11:46;20.60;63.80
41533;DHT22;27262;-35.248;149.138;2022-09-09T12:14:54;20.50;63.90
41533;DHT22;27262;-35.248;149.138;2022-09-09T12:17:26;20.60;63.90
41533;DHT22;27262;-35.248;149.138;2022-09-09T12:20:19;20.50;63.80
41533;DHT22;27262;-35.248;149.138;2022-09-09T12:28:22;20.60;63.80
41533;DHT22;27262;-35.248;149.138;2022-09-09T12:31:14;20.50;63.80
41533;DHT22;27262;-35.248;149.138;2022-09-09T12:33:47;20.50;64.40
41533;DHT22;27262;-35.248;149.138;2022-09-09T12:36:23;20.50;63.80
41533;DHT22;27262;-35.248;149.138;2022-09-09T12:38:58;20.50;63.70
41533;DHT22;27262;-35.248;149.138;2022-09-09T12:41:40;20.50;63.60
41533;DHT22;27262;-35.248;149.138;2022-09-09T12:44:10;20.50;63.80
41533;DHT22;27262;-35.248;149.138;2022-09-09T12:46:45;20.50;63.80
41533;DHT22;27262;-35.248;149.138;2022-09-09T12:49:35;20.50;63.70
41533;DHT22;27262;-35.248;149.138;2022-09-09T12:52:14;20.40;63.60
41533;DHT22;27262;-35.248;149.138;2022-09-09T12:54:47;20.40;63.70
41533;DHT22;27262;-35.248;149.138;2022-09-09T12:57:23;20.40;64.60
41533;DHT22;27262;-35.248;149.138;2022-09-09T13:00:10;20.40;63.70
41533;DHT22;27262;-35.248;149.138;2022-09-09T13:02:53;20.40;63.80
41533;DHT22;27262;-35.248;149.138;2022-09-09T13:05:45;20.40;63.80
41533;DHT22;27262;-35.248;149.138;2022-09-09T13:08:25;20.40;63.90
41533;DHT22;27262;-35.248;149.138;2022-09-09T13:11:06;20.40;64.00
41533;DHT22;27262;-35.248;149.138;2022-09-09T13:13:39;20.40;64.00
41533;DHT22;27262;-35.248;149.138;2022-09-09T13:16:21;20.30;64.10
41533;DHT22;27262;-35.248;149.138;2022-09-09T13:18:52;20.30;64.10
41533;DHT22;27262;-35.248;149.138;2022-09-09T13:21:42;20.30;64.30
41533;DHT22;27262;-35.248;149.138;2022-09-09T13:27:05;20.30;64.50
41533;DHT22;27262;-35.248;149.138;2022-09-09T13:29:36;20.20;64.50
41533;DHT22;27262;-35.248;149.138;2022-09-09T13:32:16;20.20;64.50
41533;DHT22;27262;-35.248;149.138;2022-09-09T13:34:57;20.20;64.40
41533;DHT22;27262;-35.248;149.138;2022-09-09T13:37:37;20.20;64.50
41533;DHT22;27262;-35.248;149.138;2022-09-09T13:40:19;20.20;64.60
41533;DHT22;27262;-35.248;149.138;2022-09-09T13:42:56;20.20;64.60
41533;DHT22;27262;-35.248;149.138;2022-09-09T13:45:27;20.10;64.60
41533;DHT22;27262;-35.248;149.138;2022-09-09T13:47:58;20.10;64.60
41533;DHT22;27262;-35.248;149.138;2022-09-09T13:50:38;20.10;64.60
41533;DHT22;27262;-35.248;149.138;2022-09-09T13:53:08;20.10;64.70
41533;DHT22;27262;-35.248;149.138;2022-09-09T13:55:38;20.10;64.60
41533;DHT22;27262;-35.248;149.138;2022-09-09T13:58:16;20.10;64.60
41533;DHT22;27262;-35.248;149.138;2022-09-09T14:00:52;20.10;64.60
41533;DHT22;27262;-35.248;149.138;2022-09-09T14:03:22;20.00;64.60
41533;DHT22;27262;-35.248;149.138;2022-09-09T14:05:53;20.00;64.60
41533;DHT22;27262;-35.248;149.138;2022-09-09T14:08:27;20.00;64.60
41533;DHT22;27262;-35.248;149.138;2022-09-09T14:11:08;20.00;64.50
41533;DHT22;27262;-35.248;149.138;2022-09-09T14:13:41;20.00;64.50
41533;DHT22;27262;-35.248;149.138;2022-09-09T14:16:11;19.90;64.40
41533;DHT22;27262;-35.248;149.138;2022-09-09T14:18:41;19.90;64.40
41533;DHT22;27262;-35.248;149.138;2022-09-09T14:21:12;19.90;64.40
41533;DHT22;27262;-35.248;149.138;2022-09-09T14:23:43;19.90;64.50
41533;DHT22;27262;-35.248;149.138;2022-09-09T14:26:13;19.90;64.50
41533;DHT22;27262;-35.248;149.138;2022-09-09T14:28:43;19.90;64.50
41533;DHT22;27262;-35.248;149.138;2022-09-09T14:31:23;19.90;64.50
41533;DHT22;27262;-35.248;149.138;2022-09-09T14:33:54;19.90;64.50
41533;DHT22;27262;-35.248;149.138;2022-09-09T14:36:24;19.90;64.50
41533;DHT22;27262;-35.248;149.138;2022-09-09T14:38:55;19.80;64.40
41533;DHT22;27262;-35.248;149.138;2022-09-09T14:41:25;19.80;64.40
41533;DHT22;27262;-35.248;149.138;2022-09-09T14:43:55;19.80;64.40
41533;DHT22;27262;-35.248;149.138;2022-09-09T14:46:26;19.80;64.30
41533;DHT22;27262;-35.248;149.138;2022-09-09T14:48:56;19.80;64.30
41533;DHT22;27262;-35.248;149.138;2022-09-09T14:51:27;19.80;64.30
41533;DHT22;27262;-35.248;149.138;2022-09-09T14:53:59;19.70;64.20
41533;DHT22;27262;-35.248;149.138;2022-09-09T14:56:31;19.70;64.10
41533;DHT22;27262;-35.248;149.138;2022-09-09T14:59:04;19.70;64.10
41533;DHT22;27262;-35.248;149.138;2022-09-09T15:01:34;19.70;64.10
41533;DHT22;27262;-35.248;149.138;2022-09-09T15:04:05;19.70;64.10
41533;DHT22;27262;-35.248;149.138;2022-09-09T15:06:36;19.70;64.10
41533;DHT22;27262;-35.248;149.138;2022-09-09T15:09:08;19.70;64.00
41533;DHT22;27262;-35.248;149.138;2022-09-09T15:11:38;19.60;64.00
41533;DHT22;27262;-35.248;149.138;2022-09-09T15:14:09;19.60;64.00
41533;DHT22;27262;-35.248;149.138;2022-09-09T15:16:41;19.60;64.00
41533;DHT22;27262;-35.248;149.138;2022-09-09T15:19:11;19.60;64.00
41533;DHT22;27262;-35.248;149.138;2022-09-09T15:21:42;19.60;64.00
41533;DHT22;27262;-35.248;149.138;2022-09-09T15:24:12;19.60;64.00
41533;DHT22;27262;-35.248;149.138;2022-09-09T15:26:43;19.60;64.00
41533;DHT22;27262;-35.248;149.138;2022-09-09T15:29:13;19.50;63.90
41533;DHT22;27262;-35.248;149.138;2022-09-09T15:31:43;19.60;64.00
41533;DHT22;27262;-35.248;149.138;2022-09-09T15:34:13;19.50;63.90
41533;DHT22;27262;-35.248;149.138;2022-09-09T15:36:44;19.50;63.90
41533;DHT22;27262;-35.248;149.138;2022-09-09T15:39:18;19.50;63.90
41533;DHT22;27262;-35.248;149.138;2022-09-09T15:41:49;19.50;64.70
41533;DHT22;27262;-35.248;149.138;2022-09-09T15:44:20;19.50;63.90
41533;DHT22;27262;-35.248;149.138;2022-09-09T15:46:54;19.50;63.90
41533;DHT22;27262;-35.248;149.138;2022-09-09T15:49:26;19.50;63.90
41533;DHT22;27262;-35.248;149.138;2022-09-09T15:51:58;19.50;64.00
41533;DHT22;27262;-35.248;149.138;2022-09-09T15:54:34;19.40;63.90
41533;DHT22;27262;-35.248;149.138;2022-09-09T15:57:06;19.40;63.90
41533;DHT22;27262;-35.248;149.138;2022-09-09T15:59:36;19.40;63.90
41533;DHT22;27262;-35.248;149.138;2022-09-09T16:02:06;19.40;63.90
41533;DHT22;27262;-35.248;149.138;2022-09-09T16:04:37;19.40;63.90
41533;DHT22;27262;-35.248;149.138;2022-09-09T16:07:08;19.40;63.90
41533;DHT22;27262;-35.248;149.138;2022-09-09T16:09:38;19.40;63.90
41533;DHT22;27262;-35.248;149.138;2022-09-09T16:12:09;19.30;63.90
41533;DHT22;27262;-35.248;149.138;2022-09-09T16:14:41;19.40;64.00
41533;DHT22;27262;-35.248;149.138;2022-09-09T16:17:11;19.30;63.90
41533;DHT22;27262;-35.248;149.138;2022-09-09T16:19:42;19.30;63.90
41533;DHT22;27262;-35.248;149.138;2022-09-09T16:22:12;19.30;63.90
41533;DHT22;27262;-35.248;149.138;2022-09-09T16:24:45;19.30;63.90
41533;DHT22;27262;-35.248;149.138;2022-09-09T16:27:15;19.30;63.90
41533;DHT22;27262;-35.248;149.138;2022-09-09T16:29:45;19.30;63.90
41533;DHT22;27262;-35.248;149.138;2022-09-09T16:32:15;19.30;63.90
41533;DHT22;27262;-35.248;149.138;2022-09-09T16:34:45;19.20;63.90
41533;DHT22;27262;-35.248;149.138;2022-09-09T16:37:16;19.20;63.90
41533;DHT22;27262;-35.248;149.138;2022-09-09T16:39:47;19.20;63.90
41533;DHT22;27262;-35.248;149.138;2022-09-09T16:42:17;19.20;63.90
41533;DHT22;27262;-35.248;149.138;2022-09-09T16:44:47;19.20;63.90
41533;DHT22;27262;-35.248;149.138;2022-09-09T16:47:19;19.20;63.90
41533;DHT22;27262;-35.248;149.138;2022-09-09T16:49:49;19.20;63.90
41533;DHT22;27262;-35.248;149.138;2022-09-09T16:52:19;19.20;63.90
41533;DHT22;27262;-35.248;149.138;2022-09-09T16:54:49;19.10;63.90
41533;DHT22;27262;-35.248;149.138;2022-09-09T16:57:20;19.10;63.90
41533;DHT22;27262;-35.248;149.138;2022-09-09T16:59:50;19.10;63.90
41533;DHT22;27262;-35.248;149.138;2022-09-09T17:02:23;19.10;64.00
41533;DHT22;27262;-35.248;149.138;2022-09-09T17:04:53;19.10;64.00
41533;DHT22;27262;-35.248;149.138;2022-09-09T17:07:23;19.10;63.90
41533;DHT22;27262;-35.248;149.138;2022-09-09T17:09:54;19.10;64.00
41533;DHT22;27262;-35.248;149.138;2022-09-09T17:12:24;19.10;64.00
41533;DHT22;27262;-35.248;149.138;2022-09-09T17:14:55;19.10;64.10
41533;DHT22;27262;-35.248;149.138;2022-09-09T17:17:26;19.10;64.00
41533;DHT22;27262;-35.248;149.138;2022-09-09T17:19:59;19.00;64.00
41533;DHT22;27262;-35.248;149.138;2022-09-09T17:22:29;19.00;64.00